Time;durP1;ratioP1;P1;durP2;ratioP2;P2;SDS_P1;SDS_P2;PMS_P1;PMS_P2;Temp;Humidity;BMP_temperature;BMP_pressure;BME280_temperature;BME280_humidity;BME280_pressure;Samples;Min_cycle;Max_cycle;Signal;HPM_P1;HPM_P2
2022/01/30 00:01:49;;;;;;;41.13;9.27;;;6.30;99.90;;;;;;4967650;28;20046;-71
2022/01/30 00:04:15;;;;;;;50.42;8.98;;;6.20;99.90;;;;;;4968459;28;20038;-71
2022/01/30 00:06:41;;;;;;;46.00;11.30;;;6.20;99.90;;;;;;4967339;28;20050;-71
2022/01/30 00:09:15;;;;;;;63.25;10.40;;;6.10;99.90;;;;;;4963278;28;20051;-71
2022/01/30 00:11:43;;;;;;;38.42;7.97;;;6.10;99.90;;;;;;4967571;28;20110;-71
2022/01/30 00:14:12;;;;;;;38.70;8.93;;;6.00;99.90;;;;;;4960977;28;20050;-71
2022/01/30 00:16:39;;;;;;;26.80;7.03;;;6.00;99.90;;;;;;4968820;28;20134;-71
2022/01/30 00:19:16;;;;;;;44.25;8.35;;;5.90;99.90;;;;;;4968851;28;20069;-71
2022/01/30 00:21:47;;;;;;;49.33;10.52;;;5.90;99.90;;;;;;4961361;28;20503;-72
2022/01/30 00:24:20;;;;;;;44.03;9.60;;;5.90;99.90;;;;;;4968050;28;20047;-72
2022/01/30 00:26:47;;;;;;;35.60;9.27;;;5.90;99.90;;;;;;4967646;28;20054;-72
2022/01/30 00:29:13;;;;;;;48.45;8.98;;;5.80;99.90;;;;;;4975053;28;20057;-71
2022/01/30 00:31:39;;;;;;;42.38;10.05;;;5.80;99.90;;;;;;4966031;28;20042;-72
2022/01/30 00:34:05;;;;;;;39.50;10.45;;;5.80;99.90;;;;;;4968230;28;20584;-71
2022/01/30 00:36:31;;;;;;;44.33;9.65;;;5.80;99.90;;;;;;4969702;28;20524;-71
2022/01/30 00:39:01;;;;;;;47.95;9.25;;;5.80;99.90;;;;;;4963745;28;20046;-72
2022/01/30 00:41:26;;;;;;;52.40;10.75;;;5.80;99.90;;;;;;4967156;28;20081;-72
2022/01/30 00:43:53;;;;;;;47.42;10.95;;;5.80;99.90;;;;;;4963159;28;20520;-72
2022/01/30 00:46:18;;;;;;;51.00;10.35;;;5.90;99.90;;;;;;4963252;28;20045;-72
2022/01/30 00:48:44;;;;;;;33.45;9.25;;;5.90;99.90;;;;;;4966352;28;20058;-72
2022/01/30 00:51:10;;;;;;;44.20;10.25;;;6.00;99.90;;;;;;4981652;28;20066;-72
2022/01/30 00:53:36;;;;;;;42.55;10.18;;;6.00;99.90;;;;;;4968355;28;20061;-72
2022/01/30 00:56:02;;;;;;;28.05;8.77;;;6.00;99.90;;;;;;4966328;28;20046;-72
2022/01/30 00:58:28;;;;;;;44.92;9.13;;;6.10;99.90;;;;;;4965294;28;20038;-72
2022/01/30 01:00:54;;;;;;;44.38;9.25;;;6.10;99.90;;;;;;4967434;28;20050;-72
2022/01/30 01:03:19;;;;;;;35.65;8.30;;;6.10;99.90;;;;;;4982771;28;20046;-72
2022/01/30 01:05:45;;;;;;;46.13;7.93;;;6.10;99.90;;;;;;4962026;28;20070;-73
2022/01/30 01:08:27;;;;;;;34.58;8.18;;;6.10;99.90;;;;;;4963597;28;20497;-72
2022/01/30 01:11:00;;;;;;;24.55;7.28;;;6.10;99.90;;;;;;4958735;28;20178;-72
2022/01/30 01:24:11;;;;;;;44.22;9.07;;;5.90;99.90;;;;;;4968626;28;20497;-72
2022/01/30 01:26:38;;;;;;;34.50;7.15;;;5.80;99.90;;;;;;4970148;28;20050;-72
2022/01/30 01:29:06;;;;;;;31.33;7.60;;;5.80;99.90;;;;;;4967278;28;20058;-72
2022/01/30 01:31:32;;;;;;;30.67;7.80;;;5.70;99.90;;;;;;4967942;28;20054;-72
2022/01/30 01:36:26;;;;;;;41.03;7.63;;;5.60;99.90;;;;;;4973234;28;20047;-72
2022/01/30 01:38:52;;;;;;;33.97;8.65;;;5.60;99.90;;;;;;4967275;28;20053;-72
2022/01/30 01:41:21;;;;;;;43.67;9.02;;;5.60;99.90;;;;;;4967191;28;20483;-72
2022/01/30 01:43:50;;;;;;;;;;;5.60;99.90;;;;;;4969324;28;20039;-72
2022/01/30 01:46:26;;;;;;;46.65;8.88;;;5.50;99.90;;;;;;4966921;28;20419;-72
2022/01/30 01:48:53;;;;;;;35.13;8.35;;;5.50;99.90;;;;;;4961951;28;20523;-72
2022/01/30 01:51:31;;;;;;;47.13;11.03;;;5.50;99.90;;;;;;4970163;28;20516;-72
2022/01/30 01:53:59;;;;;;;47.73;10.40;;;5.60;99.90;;;;;;4973363;28;20377;-73
2022/01/30 01:56:31;;;;;;;32.42;8.85;;;5.60;99.90;;;;;;4975189;28;20065;-72
2022/01/30 01:58:56;;;;;;;44.83;10.18;;;5.60;99.90;;;;;;4972148;28;20100;-73
2022/01/30 02:01:24;;;;;;;53.65;11.70;;;5.70;99.90;;;;;;4971864;28;20039;-73
2022/01/30 02:03:50;;;;;;;47.50;11.13;;;5.70;99.90;;;;;;4969755;28;20054;-73
2022/01/30 02:06:19;;;;;;;54.97;13.10;;;5.70;99.90;;;;;;4969822;28;20050;-71
2022/01/30 02:08:53;;;;;;;59.90;12.10;;;5.60;99.90;;;;;;4971194;28;20046;-72
2022/01/30 02:27:25;;;;;;;53.78;10.00;;;5.40;99.90;;;;;;4970433;28;20043;-71
2022/01/30 02:29:51;;;;;;;40.78;10.75;;;5.40;99.90;;;;;;4967940;28;20149;-71
2022/01/30 02:32:17;;;;;;;50.80;11.77;;;5.40;99.90;;;;;;4969769;28;20031;-71
2022/01/30 02:34:43;;;;;;;53.38;11.90;;;5.40;99.90;;;;;;4969525;28;20043;-71
2022/01/30 02:37:11;;;;;;;46.60;11.07;;;5.40;99.90;;;;;;4970536;28;20152;-71
2022/01/30 02:39:37;;;;;;;58.45;14.02;;;5.50;99.90;;;;;;4968798;28;20058;-71
2022/01/30 02:42:03;;;;;;;49.17;11.38;;;5.50;99.90;;;;;;4971406;28;20047;-71
2022/01/30 02:46:58;;;;;;;49.22;13.05;;;5.60;99.90;;;;;;4971346;28;20195;-71
2022/01/30 02:52:04;;;;;;;47.30;11.15;;;5.60;99.90;;;;;;4970677;28;20082;-71
2022/01/30 02:54:30;;;;;;;58.33;11.68;;;5.60;99.90;;;;;;4970385;28;20043;-70
2022/01/30 02:56:57;;;;;;;60.25;10.93;;;5.60;99.90;;;;;;4966223;28;20118;-70
2022/01/30 02:59:23;;;;;;;46.08;11.90;;;5.60;99.90;;;;;;4969579;28;20566;-71
2022/01/30 03:01:49;;;;;;;49.33;11.38;;;5.60;99.90;;;;;;4985752;28;20438;-71
2022/01/30 03:04:15;;;;;;;45.80;10.40;;;5.60;99.90;;;;;;4986810;28;20086;-70
2022/01/30 03:06:41;;;;;;;63.00;12.25;;;5.60;99.90;;;;;;4965875;28;20055;-71
2022/01/30 03:09:09;;;;;;;57.58;12.02;;;5.60;99.90;;;;;;4965079;28;20541;-71
2022/01/30 03:11:35;;;;;;;43.50;9.85;;;5.60;99.90;;;;;;4970475;28;20518;-71
2022/01/30 03:14:02;;;;;;;52.17;12.48;;;5.60;99.90;;;;;;4969463;28;20045;-71
2022/01/30 03:16:27;;;;;;;63.58;10.63;;;5.70;99.90;;;;;;4971240;28;20043;-71
2022/01/30 03:18:53;;;;;;;54.22;12.73;;;5.70;99.90;;;;;;4984699;28;20097;-70
2022/01/30 03:21:19;;;;;;;62.90;13.25;;;5.70;99.90;;;;;;4985585;28;20051;-71
2022/01/30 03:23:45;;;;;;;62.28;13.82;;;5.70;99.90;;;;;;4970795;28;20635;-71
2022/01/30 03:26:13;;;;;;;62.13;12.32;;;5.70;99.90;;;;;;4967287;28;20042;-71
2022/01/30 03:28:41;;;;;;;52.15;13.15;;;5.70;99.90;;;;;;4959313;28;20139;-71
2022/01/30 03:31:09;;;;;;;62.50;13.37;;;5.70;99.90;;;;;;4969883;28;20050;-72
2022/01/30 03:33:36;;;;;;;52.88;12.35;;;5.70;99.90;;;;;;4962564;28;20492;-71
2022/01/30 03:36:02;;;;;;;60.72;12.80;;;5.70;99.90;;;;;;4968467;28;20092;-71
2022/01/30 03:38:28;;;;;;;61.83;12.25;;;5.60;99.90;;;;;;4962780;28;20049;-71
2022/01/30 03:40:54;;;;;;;80.22;13.95;;;5.70;99.90;;;;;;4968503;28;20043;-71
2022/01/30 03:43:21;;;;;;;50.90;12.52;;;5.70;99.90;;;;;;4968023;28;20174;-72
2022/01/30 03:45:47;;;;;;;51.03;12.45;;;5.70;99.90;;;;;;4969475;28;20047;-71
2022/01/30 03:48:14;;;;;;;51.55;11.65;;;5.70;99.90;;;;;;4982057;28;20050;-71
2022/01/30 03:50:44;;;;;;;49.40;12.15;;;5.70;99.90;;;;;;4968646;28;20081;-71
2022/01/30 03:53:11;;;;;;;59.33;13.70;;;5.70;99.90;;;;;;4969597;28;20074;-71
2022/01/30 03:55:38;;;;;;;55.78;12.38;;;5.70;99.90;;;;;;4967972;28;20057;-72
2022/01/30 03:58:05;;;;;;;59.55;12.68;;;5.80;99.90;;;;;;4961504;28;20047;-71
2022/01/30 04:00:31;;;;;;;60.42;14.30;;;5.80;99.90;;;;;;4969703;28;20047;-71
2022/01/30 04:02:57;;;;;;;61.40;13.02;;;5.80;99.90;;;;;;4970249;28;20039;-71
2022/01/30 04:05:23;;;;;;;47.88;11.23;;;5.80;99.90;;;;;;4969041;28;20097;-71
2022/01/30 04:07:49;;;;;;;47.28;11.23;;;5.80;99.90;;;;;;4965887;28;20047;-71
2022/01/30 04:10:15;;;;;;;54.22;13.23;;;5.80;99.90;;;;;;4968582;28;20105;-71
2022/01/30 04:12:51;;;;;;;64.32;13.85;;;5.80;99.90;;;;;;4971691;28;20047;-71
2022/01/30 04:15:17;;;;;;;51.05;12.48;;;5.80;99.90;;;;;;4973708;28;20047;-71
2022/01/30 04:17:43;;;;;;;79.90;14.43;;;5.80;99.90;;;;;;4968265;28;20042;-71
2022/01/30 04:20:09;;;;;;;63.55;13.80;;;5.90;99.90;;;;;;4982845;28;20051;-71
2022/01/30 04:22:35;;;;;;;48.08;13.60;;;5.90;99.90;;;;;;4969177;28;20108;-71
2022/01/30 04:25:01;;;;;;;65.50;15.65;;;5.90;99.90;;;;;;4983289;28;20816;-70
2022/01/30 04:27:26;;;;;;;72.97;17.05;;;5.90;99.90;;;;;;4983481;28;20045;-70
2022/01/30 04:29:52;;;;;;;80.78;14.40;;;5.90;99.90;;;;;;4968130;28;20058;-69
2022/01/30 04:32:18;;;;;;;70.15;15.93;;;5.80;99.90;;;;;;4970734;28;20484;-69
2022/01/30 04:34:51;;;;;;;57.75;12.43;;;5.70;99.90;;;;;;4968946;28;20510;-71
2022/01/30 04:37:26;;;;;;;65.85;15.82;;;5.60;99.90;;;;;;4965801;28;20058;-71
2022/01/30 04:54:21;;;;;;;70.22;15.63;;;5.30;99.90;;;;;;4966896;28;20055;-71
2022/01/30 05:09:21;;;;;;;82.05;16.40;;;5.20;99.90;;;;;;4966163;28;20047;-72
2022/01/30 05:11:47;;;;;;;86.13;15.63;;;5.20;99.90;;;;;;4967123;28;20058;-72
2022/01/30 05:14:14;;;;;;;69.97;18.13;;;5.20;99.90;;;;;;4982531;28;20104;-72
2022/01/30 05:16:40;;;;;;;67.03;15.80;;;5.20;99.90;;;;;;4980721;28;20074;-72
2022/01/30 05:19:06;;;;;;;68.95;15.27;;;5.20;99.90;;;;;;4964853;28;20050;-72
2022/01/30 05:21:32;;;;;;;72.07;16.33;;;5.20;99.90;;;;;;4987961;28;20077;-71
2022/01/30 05:23:59;;;;;;;96.50;19.55;;;5.20;99.90;;;;;;4954090;28;20144;-73
2022/01/30 05:26:27;;;;;;;76.28;16.17;;;5.20;99.90;;;;;;4969561;28;20871;-71
2022/01/30 05:28:53;;;;;;;65.78;15.23;;;5.30;99.90;;;;;;4967304;28;20047;-71
2022/01/30 05:31:19;;;;;;;74.60;16.73;;;5.30;99.90;;;;;;4985921;28;20042;-71
2022/01/30 05:33:46;;;;;;;82.45;18.50;;;5.30;99.90;;;;;;4971489;28;20046;-71
2022/01/30 05:36:12;;;;;;;66.55;15.48;;;5.30;99.90;;;;;;4969446;28;20110;-71
2022/01/30 05:38:38;;;;;;;73.72;19.15;;;5.30;99.90;;;;;;4967200;28;20053;-72
2022/01/30 05:41:04;;;;;;;84.53;20.70;;;5.30;99.90;;;;;;4971010;28;20039;-71
2022/01/30 05:43:32;;;;;;;93.85;18.65;;;5.30;99.90;;;;;;4969418;28;21190;-72
2022/01/30 05:46:13;;;;;;;100.85;20.77;;;5.30;99.90;;;;;;4972348;28;20043;-71
2022/01/30 05:48:39;;;;;;;90.15;18.92;;;5.30;99.90;;;;;;4967772;28;20066;-71
2022/01/30 05:51:05;;;;;;;73.10;17.20;;;5.30;99.90;;;;;;4966176;28;20055;-71
2022/01/30 05:53:32;;;;;;;89.80;19.00;;;5.30;99.90;;;;;;4985209;28;20471;-72
2022/01/30 05:55:58;;;;;;;88.13;18.25;;;5.30;99.90;;;;;;4970840;28;20082;-71
2022/01/30 05:58:23;;;;;;;92.88;17.15;;;5.30;99.90;;;;;;4973592;28;20081;-72
2022/01/30 06:00:49;;;;;;;87.03;17.08;;;5.30;99.90;;;;;;4971849;28;20492;-72
2022/01/30 06:03:15;;;;;;;101.85;20.10;;;5.20;99.90;;;;;;4969944;28;20511;-71
2022/01/30 06:05:41;;;;;;;76.93;16.77;;;5.20;99.90;;;;;;4972045;28;20039;-72
2022/01/30 06:08:59;;;;;;;73.97;16.85;;;5.20;99.90;;;;;;4970309;28;20054;-72
2022/01/30 06:10:55;;;;;;;87.65;16.83;;;5.20;99.90;;;;;;4961439;28;20178;-71
2022/01/30 06:13:21;;;;;;;92.85;18.80;;;5.30;99.90;;;;;;4968600;28;20126;-71
2022/01/30 06:15:46;;;;;;;76.72;17.63;;;5.30;99.90;;;;;;4963077;28;20101;-71
2022/01/30 06:18:12;;;;;;;93.70;17.80;;;5.20;99.90;;;;;;4990735;28;20399;-72
2022/01/30 06:20:38;;;;;;;86.45;19.38;;;5.30;99.90;;;;;;4970390;28;20043;-72
2022/01/30 06:23:03;;;;;;;78.25;17.98;;;5.30;99.90;;;;;;4970263;28;20133;-72
2022/01/30 06:25:29;;;;;;;83.15;17.88;;;5.30;99.90;;;;;;4969182;28;20077;-72
2022/01/30 06:27:54;;;;;;;74.10;16.02;;;5.30;99.90;;;;;;4960648;28;20066;-72
2022/01/30 06:30:21;;;;;;;103.15;18.00;;;5.30;99.90;;;;;;4968924;28;20484;-72
2022/01/30 06:32:49;;;;;;;82.47;17.35;;;5.30;99.90;;;;;;4965950;28;20055;-71
2022/01/30 06:35:15;;;;;;;86.68;19.65;;;5.20;99.90;;;;;;4972397;28;20043;-72
2022/01/30 06:37:41;;;;;;;72.22;16.45;;;5.20;99.90;;;;;;4970828;28;20051;-72
2022/01/30 06:40:07;;;;;;;70.95;18.33;;;5.20;99.90;;;;;;4964518;28;20122;-72
2022/01/30 06:42:33;;;;;;;90.75;20.77;;;5.20;99.90;;;;;;4970856;28;20685;-72
2022/01/30 06:44:58;;;;;;;84.63;21.38;;;5.20;99.90;;;;;;4969569;28;20073;-72
2022/01/30 06:47:24;;;;;;;89.00;18.63;;;5.20;99.90;;;;;;4970534;28;20630;-72
2022/01/30 06:49:50;;;;;;;83.40;20.27;;;5.20;99.90;;;;;;4965373;28;20424;-72
2022/01/30 06:52:16;;;;;;;91.47;19.92;;;5.20;99.90;;;;;;4962097;28;20059;-72
2022/01/30 06:54:42;;;;;;;86.05;19.02;;;5.20;99.90;;;;;;4967580;28;20055;-73
2022/01/30 06:57:08;;;;;;;90.05;17.20;;;5.20;99.90;;;;;;4986396;28;20053;-72
2022/01/30 06:59:34;;;;;;;84.07;18.58;;;5.20;99.90;;;;;;4968690;28;20118;-74
2022/01/30 07:02:00;;;;;;;102.07;19.00;;;5.20;99.90;;;;;;4980058;28;20469;-75
2022/01/30 07:04:25;;;;;;;103.38;18.85;;;5.20;99.90;;;;;;4969885;28;20047;-74
2022/01/30 07:06:51;;;;;;;72.40;16.92;;;5.20;99.90;;;;;;4969102;28;20153;-74
2022/01/30 07:09:17;;;;;;;80.65;17.25;;;5.20;99.90;;;;;;4971340;28;20042;-74
2022/01/30 07:11:43;;;;;;;78.93;17.65;;;5.20;99.90;;;;;;4970482;28;20747;-74
2022/01/30 07:14:08;;;;;;;81.50;17.98;;;5.30;99.90;;;;;;4969369;28;20109;-74
2022/01/30 07:16:34;;;;;;;94.22;18.85;;;5.30;99.90;;;;;;4966138;28;20039;-73
2022/01/30 07:19:00;;;;;;;93.90;18.58;;;5.30;99.90;;;;;;4968930;28;20039;-74
2022/01/30 07:21:26;;;;;;;62.58;15.68;;;5.30;99.90;;;;;;4966974;28;20035;-74
2022/01/30 07:23:52;;;;;;;74.10;18.60;;;5.30;99.90;;;;;;4964491;28;20047;-74
2022/01/30 07:26:17;;;;;;;81.82;17.77;;;5.30;99.90;;;;;;4968769;28;20050;-76
2022/01/30 07:28:44;;;;;;;83.72;16.88;;;5.30;99.90;;;;;;4969697;28;20054;-74
2022/01/30 07:31:10;;;;;;;71.68;17.83;;;5.40;99.90;;;;;;4968095;28;20035;-73
2022/01/30 07:33:39;;;;;;;82.10;17.77;;;5.40;99.90;;;;;;4968177;28;20054;-74
2022/01/30 07:36:12;;;;;;;83.20;18.85;;;5.40;99.90;;;;;;4964865;28;20058;-73
2022/01/30 07:38:38;;;;;;;92.70;19.83;;;5.40;99.90;;;;;;4978830;28;20073;-73
2022/01/30 07:41:04;;;;;;;98.03;19.88;;;5.40;99.90;;;;;;4979152;28;20139;-73
2022/01/30 07:43:30;;;;;;;72.32;17.92;;;5.40;99.90;;;;;;4960747;28;20062;-74
2022/01/30 07:45:58;;;;;;;70.97;18.80;;;5.40;99.90;;;;;;4978198;28;20467;-74
2022/01/30 07:48:24;;;;;;;74.35;18.38;;;5.40;99.90;;;;;;4982183;28;20066;-74
2022/01/30 07:50:50;;;;;;;78.20;17.15;;;5.40;99.90;;;;;;4966311;28;20105;-74
2022/01/30 07:53:15;;;;;;;91.13;19.40;;;5.40;99.90;;;;;;4968930;28;20081;-74
2022/01/30 07:55:41;;;;;;;88.47;19.70;;;5.40;99.90;;;;;;4964043;28;20050;-74
2022/01/30 07:58:07;;;;;;;82.95;18.42;;;5.40;99.90;;;;;;4983282;28;20473;-74
2022/01/30 08:00:32;;;;;;;78.72;18.13;;;5.40;99.90;;;;;;4966233;28;20085;-73
2022/01/30 08:02:58;;;;;;;78.43;18.17;;;5.50;99.90;;;;;;4963283;28;20075;-73
2022/01/30 08:05:24;;;;;;;77.63;16.30;;;5.50;99.90;;;;;;4966413;28;20050;-74
2022/01/30 08:07:49;;;;;;;73.00;16.25;;;5.50;99.90;;;;;;4961052;28;20051;-74
2022/01/30 08:10:15;;;;;;;65.13;14.65;;;5.50;99.90;;;;;;4965933;28;20105;-74
2022/01/30 08:12:41;;;;;;;55.20;14.13;;;5.50;99.90;;;;;;4959142;28;20045;-74
2022/01/30 08:15:07;;;;;;;73.80;14.88;;;5.50;99.90;;;;;;4983947;28;20118;-73
2022/01/30 08:17:35;;;;;;;48.85;14.63;;;5.50;99.90;;;;;;4960134;28;20530;-74
2022/01/30 08:20:01;;;;;;;72.25;15.40;;;5.50;99.90;;;;;;4960362;28;20490;-74
2022/01/30 08:22:30;;;;;;;78.68;15.63;;;5.60;99.90;;;;;;4982110;28;20047;-73
2022/01/30 08:24:55;;;;;;;59.55;14.38;;;5.60;99.90;;;;;;4965274;28;20046;-74
2022/01/30 08:27:21;;;;;;;59.80;13.85;;;5.60;99.90;;;;;;4982358;28;20054;-74
2022/01/30 08:29:47;;;;;;;56.47;14.35;;;5.60;99.90;;;;;;4976094;28;20042;-74
2022/01/30 08:32:13;;;;;;;58.85;13.80;;;5.60;99.90;;;;;;4959960;28;20054;-74
2022/01/30 08:34:42;;;;;;;71.80;15.02;;;5.60;99.90;;;;;;4967567;28;20122;-73
2022/01/30 08:37:07;;;;;;;59.28;15.13;;;5.60;99.90;;;;;;4966468;28;20085;-74
2022/01/30 08:39:34;;;;;;;80.00;14.75;;;5.60;99.90;;;;;;4968767;28;20412;-74
2022/01/30 08:42:00;;;;;;;75.18;15.05;;;5.60;99.90;;;;;;4964074;28;20047;-74
2022/01/30 08:44:26;;;;;;;65.50;14.77;;;5.70;99.90;;;;;;4963924;28;20046;-74
2022/01/30 08:46:51;;;;;;;62.00;16.85;;;5.70;99.90;;;;;;4965343;28;20046;-74
2022/01/30 08:49:17;;;;;;;80.63;15.48;;;5.70;99.90;;;;;;4962672;28;20063;-73
2022/01/30 08:51:44;;;;;;;75.18;17.90;;;5.70;99.90;;;;;;4961473;28;20717;-73
2022/01/30 08:54:10;;;;;;;56.67;14.98;;;5.70;99.90;;;;;;4963026;28;20054;-73
2022/01/30 08:56:35;;;;;;;70.50;14.65;;;5.80;99.90;;;;;;4964232;28;20039;-73
2022/01/30 08:59:01;;;;;;;51.97;14.63;;;5.80;99.90;;;;;;4961332;28;20054;-73
2022/01/30 09:01:32;;;;;;;72.97;15.48;;;5.80;99.90;;;;;;4961111;28;20573;-73
2022/01/30 09:03:59;;;;;;;73.63;15.88;;;5.80;99.90;;;;;;4961387;28;20125;-73
2022/01/30 09:06:25;;;;;;;72.93;16.52;;;5.80;99.90;;;;;;4963472;28;20097;-73
2022/01/30 09:08:50;;;;;;;81.32;18.75;;;5.80;99.90;;;;;;4980123;28;20118;-73
2022/01/30 09:11:17;;;;;;;81.57;18.23;;;5.80;99.90;;;;;;4964879;28;20050;-73
2022/01/30 09:13:43;;;;;;;50.78;15.35;;;5.80;99.90;;;;;;4966724;28;20043;-73
2022/01/30 09:16:08;;;;;;;77.40;16.45;;;5.90;99.90;;;;;;4962112;28;20038;-73
2022/01/30 09:18:37;;;;;;;67.40;17.77;;;6.00;99.90;;;;;;4963063;28;20039;-71
2022/01/30 09:21:04;;;;;;;77.72;18.30;;;6.00;99.90;;;;;;4958846;28;20059;-72
2022/01/30 09:23:30;;;;;;;94.47;18.02;;;6.10;99.90;;;;;;4975848;28;20504;-72
2022/01/30 09:25:55;;;;;;;70.80;17.83;;;6.20;99.90;;;;;;4961608;28;20087;-72
2022/01/30 09:28:21;;;;;;;65.78;16.77;;;6.20;99.90;;;;;;4960119;28;20086;-72
2022/01/30 09:30:47;;;;;;;69.30;19.13;;;6.20;99.90;;;;;;4956243;28;20046;-72
2022/01/30 09:33:13;;;;;;;77.65;17.35;;;6.20;99.90;;;;;;4979070;28;20116;-72
2022/01/30 09:35:39;;;;;;;75.18;17.45;;;6.20;99.90;;;;;;4959984;28;20101;-72
2022/01/30 09:38:05;;;;;;;67.60;16.48;;;6.20;99.90;;;;;;4980400;28;20310;-72
2022/01/30 09:40:30;;;;;;;58.95;15.48;;;6.20;99.90;;;;;;4960391;28;20047;-72
2022/01/30 09:42:57;;;;;;;80.03;17.45;;;6.20;99.90;;;;;;4966315;28;20071;-72
2022/01/30 09:45:24;;;;;;;73.72;16.92;;;6.30;99.90;;;;;;4961729;28;20496;-72
2022/01/30 09:47:52;;;;;;;102.32;20.20;;;6.30;99.90;;;;;;4964430;28;20035;-73
2022/01/30 09:50:20;;;;;;;233.80;32.95;;;6.40;99.90;;;;;;4966570;28;20051;-73
2022/01/30 09:52:46;;;;;;;87.07;16.35;;;6.50;99.90;;;;;;4965177;28;20951;-73
2022/01/30 09:55:14;;;;;;;64.07;16.90;;;6.50;99.90;;;;;;4963565;28;20039;-73
2022/01/30 09:57:40;;;;;;;68.10;17.42;;;6.60;99.90;;;;;;4979609;28;20043;-72
2022/01/30 10:00:07;;;;;;;74.18;16.67;;;6.60;99.90;;;;;;4959550;28;20141;-72
2022/01/30 10:02:33;;;;;;;64.93;15.63;;;6.70;99.90;;;;;;4960028;28;20134;-71
2022/01/30 10:04:59;;;;;;;62.75;15.77;;;6.70;99.90;;;;;;4974922;28;20058;-71
2022/01/30 10:07:39;;;;;;;69.75;16.17;;;6.80;99.90;;;;;;4958389;28;20038;-73
2022/01/30 10:10:13;;;;;;;90.50;17.23;;;6.80;99.90;;;;;;4965831;28;20035;-73
2022/01/30 10:13:05;;;;;;;74.50;15.50;;;6.90;99.90;;;;;;4969416;28;20069;-73
2022/01/30 10:15:48;;;;;;;74.43;16.52;;;6.90;99.90;;;;;;4965203;28;21029;-71
2022/01/30 10:18:14;;;;;;;69.70;14.23;;;7.00;99.90;;;;;;4966934;28;20157;-71
2022/01/30 10:20:40;;;;;;;59.40;14.40;;;7.00;99.90;;;;;;4966759;28;20129;-71
2022/01/30 10:23:09;;;;;;;57.25;13.38;;;7.00;99.90;;;;;;4965103;28;20042;-71
2022/01/30 10:25:38;;;;;;;68.38;15.93;;;7.10;99.90;;;;;;4968420;28;20420;-71
2022/01/30 10:28:14;;;;;;;66.40;13.60;;;7.20;99.90;;;;;;4965746;28;20054;-71
2022/01/30 10:30:50;;;;;;;73.57;14.90;;;7.20;99.90;;;;;;4969535;28;20082;-71
2022/01/30 10:33:18;;;;;;;55.33;15.88;;;7.30;99.90;;;;;;4960633;28;20051;-71
2022/01/30 10:35:54;;;;;;;69.70;14.93;;;7.30;99.90;;;;;;4965272;28;20400;-71
2022/01/30 10:38:25;;;;;;;60.97;14.30;;;7.30;99.90;;;;;;4965515;28;20078;-68
2022/01/30 10:41:17;;;;;;;64.72;15.80;;;7.40;99.90;;;;;;4968615;28;20071;-70
2022/01/30 10:43:57;;;;;;;56.75;15.13;;;7.40;99.90;;;;;;4964466;28;20496;-68
2022/01/30 10:46:42;;;;;;;81.05;18.08;;;7.50;99.90;;;;;;4964118;28;20054;-68
2022/01/30 10:49:10;;;;;;;55.40;14.65;;;7.60;99.90;;;;;;4968549;28;20342;-67
2022/01/30 10:51:37;;;;;;;64.93;15.38;;;7.60;99.90;;;;;;4979158;28;20090;-68
2022/01/30 10:54:06;;;;;;;66.72;14.85;;;7.60;99.90;;;;;;4956370;28;20134;-69
2022/01/30 10:56:32;;;;;;;68.03;14.88;;;7.70;99.90;;;;;;4967963;28;20051;-68
2022/01/30 10:59:08;;;;;;;74.60;14.65;;;7.80;99.90;;;;;;4966051;28;20053;-68
2022/01/30 11:01:34;;;;;;;71.43;15.03;;;7.80;99.90;;;;;;4975589;28;20054;-69
2022/01/30 11:04:02;;;;;;;72.30;15.45;;;7.90;99.90;;;;;;4969631;28;20071;-68
2022/01/30 11:06:29;;;;;;;66.10;16.88;;;8.00;99.90;;;;;;4979987;28;20053;-68
2022/01/30 11:09:10;;;;;;;68.72;16.83;;;8.00;99.90;;;;;;4969358;28;20075;-68
2022/01/30 11:11:44;;;;;;;75.32;16.20;;;8.00;99.90;;;;;;4968350;28;20659;-68
2022/01/30 11:16:59;;;;;;;87.03;17.77;;;7.90;99.90;;;;;;4969147;28;20054;-68
2022/01/30 11:19:26;;;;;;;87.25;19.90;;;7.80;99.90;;;;;;4967663;28;20047;-69
2022/01/30 11:22:01;;;;;;;81.20;17.70;;;7.70;99.90;;;;;;4961720;28;20055;-69
2022/01/30 11:24:28;;;;;;;65.47;13.98;;;7.70;99.90;;;;;;4968180;28;20531;-68
2022/01/30 11:26:54;;;;;;;64.80;15.68;;;7.60;99.90;;;;;;4963707;28;20058;-68
2022/01/30 11:29:20;;;;;;;78.07;16.65;;;7.60;99.90;;;;;;4967019;28;20042;-69
2022/01/30 11:31:47;;;;;;;56.05;15.35;;;7.50;99.90;;;;;;4969708;28;20038;-69
2022/01/30 11:34:13;;;;;;;65.90;16.58;;;7.60;99.90;;;;;;4985433;28;20484;-69
2022/01/30 11:36:43;;;;;;;56.25;13.88;;;7.60;99.90;;;;;;4963382;28;20043;-68
2022/01/30 11:39:14;;;;;;;56.92;15.27;;;7.60;99.90;;;;;;4967637;28;20109;-68
2022/01/30 11:41:40;;;;;;;78.60;15.73;;;7.70;99.90;;;;;;4956317;28;20102;-68
2022/01/30 11:44:18;;;;;;;64.10;13.52;;;7.70;99.90;;;;;;4966544;28;20046;-69
2022/01/30 11:46:57;;;;;;;55.92;15.15;;;7.80;99.90;;;;;;4962210;28;20153;-68
2022/01/30 11:49:36;;;;;;;;;;;7.80;99.90;;;;;;4967972;28;20117;-68
2022/01/30 11:52:02;;;;;;;59.72;14.43;;;7.90;99.90;;;;;;4967738;28;19930;-69
2022/01/30 11:54:40;;;;;;;58.65;15.25;;;7.90;99.90;;;;;;4950890;28;20171;-68
2022/01/30 11:57:25;;;;;;;55.20;13.10;;;7.90;99.90;;;;;;4967681;28;20047;-68
2022/01/30 12:00:00;;;;;;;78.80;15.95;;;7.80;99.90;;;;;;4966571;28;20043;-68
2022/01/30 12:02:27;;;;;;;63.58;14.93;;;7.80;99.90;;;;;;4966367;28;20496;-69
2022/01/30 12:04:58;;;;;;;55.05;15.05;;;7.90;99.90;;;;;;4984184;28;20427;-68
2022/01/30 12:07:34;;;;;;;49.50;14.82;;;7.90;99.90;;;;;;4963803;28;20049;-68
2022/01/30 12:10:15;;;;;;;72.38;15.60;;;8.00;99.90;;;;;;4967573;28;20373;-68
2022/01/30 12:12:57;;;;;;;70.13;14.65;;;8.00;99.90;;;;;;4983593;28;20385;-69
2022/01/30 12:15:37;;;;;;;43.70;12.68;;;8.00;99.90;;;;;;4968284;28;20053;-69
2022/01/30 12:18:04;;;;;;;46.50;12.55;;;8.10;99.90;;;;;;4964531;28;20193;-69
2022/01/30 12:20:33;;;;;;;60.45;13.32;;;8.00;99.90;;;;;;4965415;28;20055;-69
2022/01/30 12:22:59;;;;;;;68.25;14.73;;;8.10;99.90;;;;;;4965179;28;20055;-68
2022/01/30 12:25:29;;;;;;;54.80;13.13;;;8.10;99.90;;;;;;4982770;28;20407;-69
2022/01/30 12:28:01;;;;;;;53.55;15.55;;;8.20;99.90;;;;;;4965078;28;20127;-68
2022/01/30 12:30:40;;;;;;;52.35;14.70;;;8.10;99.90;;;;;;4968356;28;20047;-68
2022/01/30 12:33:44;;;;;;;59.72;14.48;;;8.20;99.90;;;;;;4968364;28;20571;-68
2022/01/30 12:36:12;;;;;;;57.63;14.60;;;8.30;99.90;;;;;;4893800;29;20103;-69
2022/01/30 12:38:38;;;;;;;;;;;8.30;99.90;;;;;;4891429;29;20494;-69
2022/01/30 12:41:18;;;;;;;60.78;14.05;;;8.20;99.90;;;;;;4921955;28;19922;-69
2022/01/30 12:43:44;;;;;;;64.85;16.02;;;8.20;99.90;;;;;;4968997;28;20778;-69
2022/01/30 12:46:11;;;;;;;72.95;14.77;;;8.10;99.90;;;;;;4967128;28;20046;-68
2022/01/30 12:48:37;;;;;;;61.15;12.98;;;7.90;99.90;;;;;;4962573;28;20404;-68
2022/01/30 12:51:07;;;;;;;53.58;12.90;;;7.80;99.90;;;;;;4969404;28;20054;-68
2022/01/30 12:53:36;;;;;;;55.90;13.80;;;7.70;99.90;;;;;;4982999;28;20105;-69
2022/01/30 12:56:03;;;;;;;77.47;14.00;;;7.70;99.90;;;;;;4966173;28;20046;-69
2022/01/30 12:58:35;;;;;;;61.95;13.77;;;7.70;99.90;;;;;;4966848;28;20047;-69
2022/01/30 13:01:05;;;;;;;57.33;13.80;;;7.80;99.90;;;;;;4981142;28;20856;-68
2022/01/30 13:03:31;;;;;;;65.75;14.75;;;7.90;99.90;;;;;;4965753;28;20059;-69
2022/01/30 13:05:58;;;;;;;66.18;13.70;;;8.00;99.90;;;;;;4968004;28;20073;-69
2022/01/30 13:08:53;;;;;;;63.58;14.15;;;8.10;99.90;;;;;;4963649;28;20051;-69
2022/01/30 13:11:21;;;;;;;56.63;14.43;;;8.10;99.90;;;;;;4964734;28;20097;-69
2022/01/30 13:13:55;;;;;;;64.10;15.73;;;8.20;99.90;;;;;;4965381;28;20093;-68
2022/01/30 13:16:22;;;;;;;67.95;15.48;;;8.20;99.90;;;;;;4962147;28;20106;-69
2022/01/30 13:18:48;;;;;;;69.78;14.95;;;8.20;99.90;;;;;;4965653;28;20061;-69
2022/01/30 13:21:13;;;;;;;64.15;13.40;;;8.20;99.90;;;;;;4982011;28;20443;-69
2022/01/30 13:23:45;;;;;;;73.22;14.35;;;8.30;99.90;;;;;;4969485;28;20039;-69
2022/01/30 13:26:11;;;;;;;49.13;12.88;;;8.20;99.90;;;;;;4960127;28;20051;-69
2022/01/30 13:28:37;;;;;;;71.30;14.88;;;8.00;99.90;;;;;;4966915;28;20105;-69
2022/01/30 13:31:13;;;;;;;46.05;14.52;;;7.90;99.90;;;;;;4977877;28;20054;-70
2022/01/30 13:33:38;;;;;;;62.17;13.25;;;7.70;99.90;;;;;;4964401;28;20140;-68
2022/01/30 13:36:04;;;;;;;60.15;13.10;;;7.60;99.90;;;;;;4983235;28;20046;-68
2022/01/30 13:38:32;;;;;;;63.95;14.40;;;7.60;99.90;;;;;;4983536;28;20053;-69
2022/01/30 13:41:03;;;;;;;49.10;13.75;;;7.60;99.90;;;;;;4963608;28;20122;-69
2022/01/30 13:43:35;;;;;;;59.30;13.57;;;7.60;99.90;;;;;;4977425;28;20125;-69
2022/01/30 13:48:44;;;;;;;56.13;14.45;;;7.60;99.90;;;;;;4965398;28;20043;-69
2022/01/30 13:51:10;;;;;;;56.97;15.00;;;7.50;99.90;;;;;;4951934;28;20056;-69